sensor_id;sensor_type;location;lat;lon;timestamp;pressure;altitude;pressure_sealevel;temperature;humidity
44103;BME280;29769;42.178;24.742;2023-05-12T00:00:11;100122.19;;;10.17;100.00
44103;BME280;29769;42.178;24.742;2023-05-12T00:02:56;100122.16;;;10.21;100.00
44103;BME280;29769;42.178;24.742;2023-05-12T00:05:41;100122.09;;;10.23;100.00
44103;BME280;29769;42.178;24.742;2023-05-12T00:08:26;100121.25;;;10.15;100.00
44103;BME280;29769;42.178;24.742;2023-05-12T00:11:10;100123.94;;;10.16;100.00
44103;BME280;29769;42.178;24.742;2023-05-12T00:13:55;100121.25;;;10.18;100.00
44103;BME280;29769;42.178;24.742;2023-05-12T00:16:39;100120.41;;;10.10;100.00
44103;BME280;29769;42.178;24.742;2023-05-12T00:19:24;100122.16;;;10.11;100.00
44103;BME280;29769;42.178;24.742;2023-05-12T00:22:08;100116.94;;;10.06;100.00
44103;BME280;29769;42.178;24.742;2023-05-12T00:24:53;100116.91;;;10.17;100.00
44103;BME280;29769;42.178;24.742;2023-05-12T00:27:38;100115.16;;;10.11;100.00
44103;BME280;29769;42.178;24.742;2023-05-12T00:30:22;100122.16;;;10.12;100.00
44103;BME280;29769;42.178;24.742;2023-05-12T00:33:07;100120.41;;;10.13;100.00
44103;BME280;29769;42.178;24.742;2023-05-12T00:35:51;100118.59;;;10.22;100.00
44103;BME280;29769;42.178;24.742;2023-05-12T00:38:35;100122.97;;;10.25;100.00
44103;BME280;29769;42.178;24.742;2023-05-12T00:41:20;100118.59;;;10.24;100.00
44103;BME280;29769;42.178;24.742;2023-05-12T00:44:05;100124.72;;;10.27;100.00
44103;BME280;29769;42.178;24.742;2023-05-12T00:46:50;100128.25;;;10.27;100.00
44103;BME280;29769;42.178;24.742;2023-05-12T00:49:35;100129.13;;;10.24;100.00
44103;BME280;29769;42.178;24.742;2023-05-12T00:52:20;100129.13;;;10.25;100.00
44103;BME280;29769;42.178;24.742;2023-05-12T00:55:04;100134.34;;;10.29;100.00
44103;BME280;29769;42.178;24.742;2023-05-12T00:57:50;100135.28;;;10.21;100.00
44103;BME280;29769;42.178;24.742;2023-05-12T01:00:34;100130.88;;;10.25;100.00
44103;BME280;29769;42.178;24.742;2023-05-12T01:03:19;100136.22;;;10.08;100.00
44103;BME280;29769;42.178;24.742;2023-05-12T01:08:58;100136.19;;;10.16;100.00
44103;BME280;29769;42.178;24.742;2023-05-12T01:11:44;100131.75;;;10.22;100.00
44103;BME280;29769;42.178;24.742;2023-05-12T01:14:28;100123.91;;;10.21;100.00
44103;BME280;29769;42.178;24.742;2023-05-12T01:17:13;100132.63;;;10.26;100.00
44103;BME280;29769;42.178;24.742;2023-05-12T01:20:01;100138.78;;;10.19;100.00
44103;BME280;29769;42.178;24.742;2023-05-12T01:22:48;100131.81;;;10.12;100.00
44103;BME280;29769;42.178;24.742;2023-05-12T01:25:33;100131.81;;;10.12;100.00
44103;BME280;29769;42.178;24.742;2023-05-12T01:28:20;100141.47;;;10.07;100.00
44103;BME280;29769;42.178;24.742;2023-05-12T01:31:05;100140.59;;;10.05;100.00
44103;BME280;29769;42.178;24.742;2023-05-12T01:33:52;100130.16;;;9.99;100.00
44103;BME280;29769;42.178;24.742;2023-05-12T01:36:37;100131.84;;;10.04;100.00
44103;BME280;29769;42.178;24.742;2023-05-12T01:39:21;100130.94;;;10.13;100.00
44103;BME280;29769;42.178;24.742;2023-05-12T01:42:06;100127.44;;;10.12;100.00
44103;BME280;29769;42.178;24.742;2023-05-12T01:44:51;100123.91;;;10.19;100.00
44103;BME280;29769;42.178;24.742;2023-05-12T01:47:37;100125.69;;;10.13;100.00
44103;BME280;29769;42.178;24.742;2023-05-12T01:50:24;100131.00;;;10.04;100.00
44103;BME280;29769;42.178;24.742;2023-05-12T01:53:09;100138.81;;;10.10;100.00
44103;BME280;29769;42.178;24.742;2023-05-12T01:55:53;100126.53;;;10.15;100.00
44103;BME280;29769;42.178;24.742;2023-05-12T01:58:39;100123.91;;;10.15;100.00
44103;BME280;29769;42.178;24.742;2023-05-12T02:01:23;100123.06;;;10.16;100.00
44103;BME280;29769;42.178;24.742;2023-05-12T02:04:13;100125.66;;;10.14;100.00
44103;BME280;29769;42.178;24.742;2023-05-12T02:06:58;100124.84;;;10.08;100.00
44103;BME280;29769;42.178;24.742;2023-05-12T02:09:42;100121.28;;;10.09;100.00
44103;BME280;29769;42.178;24.742;2023-05-12T02:12:27;100117.78;;;10.11;100.00
44103;BME280;29769;42.178;24.742;2023-05-12T02:15:11;100110.75;;;10.13;100.00
44103;BME280;29769;42.178;24.742;2023-05-12T02:18:01;100115.13;;;10.20;100.00
44103;BME280;29769;42.178;24.742;2023-05-12T02:20:46;100112.53;;;10.16;100.00
44103;BME280;29769;42.178;24.742;2023-05-12T02:23:31;100117.81;;;10.08;100.00
44103;BME280;29769;42.178;24.742;2023-05-12T02:26:15;100119.53;;;10.11;100.00
44103;BME280;29769;42.178;24.742;2023-05-12T02:29:01;100125.72;;;10.07;100.00
44103;BME280;29769;42.178;24.742;2023-05-12T02:31:46;100124.06;;;9.88;100.00
44103;BME280;29769;42.178;24.742;2023-05-12T02:34:35;100126.69;;;9.88;100.00
44103;BME280;29769;42.178;24.742;2023-05-12T02:37:20;100125.75;;;9.96;100.00
44103;BME280;29769;42.178;24.742;2023-05-12T02:40:05;100123.13;;;9.96;100.00
44103;BME280;29769;42.178;24.742;2023-05-12T02:42:50;100126.66;;;9.91;100.00
44103;BME280;29769;42.178;24.742;2023-05-12T02:45:34;100120.59;;;9.84;100.00
44103;BME280;29769;42.178;24.742;2023-05-12T02:48:19;100123.19;;;9.89;100.00
44103;BME280;29769;42.178;24.742;2023-05-12T02:51:04;100122.28;;;9.93;100.00
44103;BME280;29769;42.178;24.742;2023-05-12T02:53:48;100114.38;;;9.99;100.00
44103;BME280;29769;42.178;24.742;2023-05-12T02:56:33;100122.22;;;10.02;100.00
44103;BME280;29769;42.178;24.742;2023-05-12T02:59:18;100124.81;;;10.06;100.00
44103;BME280;29769;42.178;24.742;2023-05-12T03:02:02;100133.63;;;10.04;100.00
44103;BME280;29769;42.178;24.742;2023-05-12T03:04:48;100131.88;;;10.00;100.00
44103;BME280;29769;42.178;24.742;2023-05-12T03:07:33;100136.28;;;9.96;100.00
44103;BME280;29769;42.178;24.742;2023-05-12T03:10:18;100137.19;;;9.92;100.00
44103;BME280;29769;42.178;24.742;2023-05-12T03:13:03;100145.06;;;9.91;100.00
44103;BME280;29769;42.178;24.742;2023-05-12T03:15:48;100146.81;;;9.93;100.00
44103;BME280;29769;42.178;24.742;2023-05-12T03:18:32;100147.69;;;9.92;100.00
44103;BME280;29769;42.178;24.742;2023-05-12T03:21:16;100149.44;;;9.92;100.00
44103;BME280;29769;42.178;24.742;2023-05-12T03:24:01;100154.63;;;10.01;100.00
44103;BME280;29769;42.178;24.742;2023-05-12T03:26:45;100157.25;;;10.08;100.00
44103;BME280;29769;42.178;24.742;2023-05-12T03:29:30;100157.22;;;10.10;100.00
44103;BME280;29769;42.178;24.742;2023-05-12T03:32:15;100158.06;;;10.15;100.00
44103;BME280;29769;42.178;24.742;2023-05-12T03:35:00;100163.31;;;10.19;100.00
44103;BME280;29769;42.178;24.742;2023-05-12T03:37:45;100165.06;;;10.23;100.00
44103;BME280;29769;42.178;24.742;2023-05-12T03:40:29;100163.31;;;10.24;100.00
44103;BME280;29769;42.178;24.742;2023-05-12T03:43:14;100163.25;;;10.33;100.00
44103;BME280;29769;42.178;24.742;2023-05-12T03:45:58;100165.00;;;10.34;100.00
44103;BME280;29769;42.178;24.742;2023-05-12T03:48:43;100162.31;;;10.39;100.00
44103;BME280;29769;42.178;24.742;2023-05-12T03:51:28;100170.16;;;10.46;100.00
44103;BME280;29769;42.178;24.742;2023-05-12T03:54:13;100175.41;;;10.46;100.00
44103;BME280;29769;42.178;24.742;2023-05-12T03:56:59;100178.88;;;10.53;100.00
44103;BME280;29769;42.178;24.742;2023-05-12T03:59:44;100181.53;;;10.53;100.00
44103;BME280;29769;42.178;24.742;2023-05-12T04:02:30;100177.13;;;10.53;100.00
44103;BME280;29769;42.178;24.742;2023-05-12T04:05:14;100181.44;;;10.59;100.00
44103;BME280;29769;42.178;24.742;2023-05-12T04:07:59;100174.38;;;10.68;100.00
44103;BME280;29769;42.178;24.742;2023-05-12T04:10:44;100177.00;;;10.72;100.00
44103;BME280;29769;42.178;24.742;2023-05-12T04:13:29;100180.47;;;10.75;100.00
44103;BME280;29769;42.178;24.742;2023-05-12T04:16:15;100183.84;;;10.88;100.00
44103;BME280;29769;42.178;24.742;2023-05-12T04:19:00;100183.81;;;10.94;100.00
44103;BME280;29769;42.178;24.742;2023-05-12T04:21:46;100179.38;;;10.99;100.00
44103;BME280;29769;42.178;24.742;2023-05-12T04:24:30;100175.78;;;11.07;100.00
44103;BME280;29769;42.178;24.742;2023-05-12T04:27:15;100173.06;;;11.13;100.00
44103;BME280;29769;42.178;24.742;2023-05-12T04:30:00;100179.25;;;11.11;100.00
44103;BME280;29769;42.178;24.742;2023-05-12T04:32:44;100177.56;;;11.05;100.00
44103;BME280;29769;42.178;24.742;2023-05-12T04:35:29;100166.97;;;11.11;100.00
44103;BME280;29769;42.178;24.742;2023-05-12T04:38:14;100173.03;;;11.21;100.00
44103;BME280;29769;42.178;24.742;2023-05-12T04:40:59;100172.00;;;11.33;100.00
44103;BME280;29769;42.178;24.742;2023-05-12T04:43:44;100167.72;;;11.23;100.00
44103;BME280;29769;42.178;24.742;2023-05-12T04:46:29;100170.19;;;11.39;100.00
44103;BME280;29769;42.178;24.742;2023-05-12T04:49:14;100167.66;;;11.30;100.00
44103;BME280;29769;42.178;24.742;2023-05-12T04:51:58;100167.63;;;11.32;100.00
44103;BME280;29769;42.178;24.742;2023-05-12T04:54:43;100164.94;;;11.36;100.00
44103;BME280;29769;42.178;24.742;2023-05-12T04:57:28;100170.19;;;11.39;100.00
44103;BME280;29769;42.178;24.742;2023-05-12T05:00:13;100175.31;;;11.51;100.00
44103;BME280;29769;42.178;24.742;2023-05-12T05:02:59;100173.59;;;11.47;100.00
44103;BME280;29769;42.178;24.742;2023-05-12T05:05:44;100176.41;;;11.32;100.00
44103;BME280;29769;42.178;24.742;2023-05-12T05:08:29;100172.72;;;11.48;100.00
44103;BME280;29769;42.178;24.742;2023-05-12T05:11:14;100182.13;;;11.69;100.00
44103;BME280;29769;42.178;24.742;2023-05-12T05:14:00;100177.53;;;11.86;100.00
44103;BME280;29769;42.178;24.742;2023-05-12T05:16:45;100172.97;;;12.00;100.00
44103;BME280;29769;42.178;24.742;2023-05-12T05:19:30;100179.31;;;11.86;100.00
44103;BME280;29769;42.178;24.742;2023-05-12T05:22:15;100178.56;;;11.76;100.00
44103;BME280;29769;42.178;24.742;2023-05-12T05:24:59;100181.22;;;11.72;100.00
44103;BME280;29769;42.178;24.742;2023-05-12T05:27:44;100181.91;;;11.89;100.00
44103;BME280;29769;42.178;24.742;2023-05-12T05:30:28;100191.41;;;12.02;100.00
44103;BME280;29769;42.178;24.742;2023-05-12T05:33:13;100187.59;;;12.24;100.00
44103;BME280;29769;42.178;24.742;2023-05-12T05:35:58;100182.97;;;12.40;100.00
44103;BME280;29769;42.178;24.742;2023-05-12T05:38:43;100187.06;;;12.59;100.00
44103;BME280;29769;42.178;24.742;2023-05-12T05:41:28;100187.69;;;12.75;100.00
44103;BME280;29769;42.178;24.742;2023-05-12T05:44:13;100190.78;;;13.00;100.00
44103;BME280;29769;42.178;24.742;2023-05-12T05:46:58;100191.97;;;13.34;100.00
44103;BME280;29769;42.178;24.742;2023-05-12T05:49:44;100180.88;;;13.15;100.00
44103;BME280;29769;42.178;24.742;2023-05-12T05:52:29;100181.97;;;13.01;100.00
44103;BME280;29769;42.178;24.742;2023-05-12T05:55:14;100181.06;;;13.52;100.00
44103;BME280;29769;42.178;24.742;2023-05-12T05:57:59;100174.19;;;13.44;100.00
44103;BME280;29769;42.178;24.742;2023-05-12T06:00:44;100179.41;;;13.45;100.00
44103;BME280;29769;42.178;24.742;2023-05-12T06:03:28;100175.69;;;13.55;100.00
44103;BME280;29769;42.178;24.742;2023-05-12T06:06:14;100183.94;;;13.83;100.00
44103;BME280;29769;42.178;24.742;2023-05-12T06:08:59;100184.53;;;14.39;100.00
44103;BME280;29769;42.178;24.742;2023-05-12T06:11:44;100197.66;;;14.43;100.00
44103;BME280;29769;42.178;24.742;2023-05-12T06:14:28;100194.06;;;14.83;100.00
44103;BME280;29769;42.178;24.742;2023-05-12T06:17:13;100193.91;;;14.89;100.00
44103;BME280;29769;42.178;24.742;2023-05-12T06:19:58;100189.59;;;15.19;100.00
44103;BME280;29769;42.178;24.742;2023-05-12T06:22:42;100190.03;;;15.36;100.00
44103;BME280;29769;42.178;24.742;2023-05-12T06:25:27;100198.75;;;15.07;99.54
44103;BME280;29769;42.178;24.742;2023-05-12T06:28:12;100192.25;;;15.19;99.66
44103;BME280;29769;42.178;24.742;2023-05-12T06:30:56;100195.28;;;15.71;96.37
44103;BME280;29769;42.178;24.742;2023-05-12T06:33:43;100196.91;;;16.06;91.26
44103;BME280;29769;42.178;24.742;2023-05-12T06:36:27;100190.81;;;16.61;89.07
44103;BME280;29769;42.178;24.742;2023-05-12T06:39:13;100190.97;;;16.83;83.40
44103;BME280;29769;42.178;24.742;2023-05-12T06:41:58;100193.09;;;16.72;83.69
44103;BME280;29769;42.178;24.742;2023-05-12T06:44:42;100195.50;;;17.32;79.74
44103;BME280;29769;42.178;24.742;2023-05-12T06:47:27;100192.69;;;17.37;77.72
44103;BME280;29769;42.178;24.742;2023-05-12T06:50:14;100191.09;;;17.31;79.07
44103;BME280;29769;42.178;24.742;2023-05-12T06:53:00;100189.38;;;16.77;81.11
44103;BME280;29769;42.178;24.742;2023-05-12T06:55:45;100186.84;;;16.74;81.55
44103;BME280;29769;42.178;24.742;2023-05-12T06:58:30;100187.09;;;16.67;79.56
44103;BME280;29769;42.178;24.742;2023-05-12T07:01:14;100183.91;;;17.08;80.42
44103;BME280;29769;42.178;24.742;2023-05-12T07:04:00;100181.44;;;17.28;77.03
44103;BME280;29769;42.178;24.742;2023-05-12T07:06:44;100181.06;;;17.89;74.46
44103;BME280;29769;42.178;24.742;2023-05-12T07:09:29;100182.75;;;17.91;71.56
44103;BME280;29769;42.178;24.742;2023-05-12T07:12:13;100183.69;;;16.89;75.02
44103;BME280;29769;42.178;24.742;2023-05-12T07:14:58;100185.06;;;16.45;79.78
44103;BME280;29769;42.178;24.742;2023-05-12T07:17:42;100187.13;;;16.36;80.39
44103;BME280;29769;42.178;24.742;2023-05-12T07:20:27;100189.50;;;16.45;79.22
44103;BME280;29769;42.178;24.742;2023-05-12T07:23:12;100184.59;;;16.33;81.54
44103;BME280;29769;42.178;24.742;2023-05-12T07:25:56;100185.56;;;16.30;80.95
44103;BME280;29769;42.178;24.742;2023-05-12T07:28:41;100189.38;;;16.50;78.78
44103;BME280;29769;42.178;24.742;2023-05-12T07:31:26;100190.44;;;16.44;78.32
44103;BME280;29769;42.178;24.742;2023-05-12T07:34:10;100194.69;;;16.50;77.21
44103;BME280;29769;42.178;24.742;2023-05-12T07:36:55;100193.16;;;16.98;74.22
44103;BME280;29769;42.178;24.742;2023-05-12T07:39:40;100192.91;;;16.78;71.99
44103;BME280;29769;42.178;24.742;2023-05-12T07:42:24;100186.09;;;16.97;69.34
44103;BME280;29769;42.178;24.742;2023-05-12T07:45:09;100192.91;;;17.55;66.60
44103;BME280;29769;42.178;24.742;2023-05-12T07:47:53;100187.22;;;18.36;64.80
44103;BME280;29769;42.178;24.742;2023-05-12T07:50:38;100170.44;;;18.99;62.05
44103;BME280;29769;42.178;24.742;2023-05-12T07:53:22;100179.66;;;18.92;61.59
44103;BME280;29769;42.178;24.742;2023-05-12T07:56:07;100170.50;;;19.39;58.05
44103;BME280;29769;42.178;24.742;2023-05-12T07:58:51;100177.44;;;19.84;54.72
44103;BME280;29769;42.178;24.742;2023-05-12T08:01:36;100172.69;;;20.28;52.27
44103;BME280;29769;42.178;24.742;2023-05-12T08:04:20;100181.25;;;19.78;50.77
44103;BME280;29769;42.178;24.742;2023-05-12T08:07:05;100167.56;;;20.23;50.55
44103;BME280;29769;42.178;24.742;2023-05-12T08:09:50;100169.22;;;20.45;47.14
44103;BME280;29769;42.178;24.742;2023-05-12T08:12:34;100181.59;;;19.71;49.32
44103;BME280;29769;42.178;24.742;2023-05-12T08:15:18;100175.97;;;20.53;47.97
44103;BME280;29769;42.178;24.742;2023-05-12T08:18:03;100179.59;;;21.05;46.24
44103;BME280;29769;42.178;24.742;2023-05-12T08:20:48;100179.09;;;21.83;45.17
44103;BME280;29769;42.178;24.742;2023-05-12T08:23:33;100177.13;;;22.20;43.38
44103;BME280;29769;42.178;24.742;2023-05-12T08:26:17;100176.72;;;21.94;43.19
44103;BME280;29769;42.178;24.742;2023-05-12T08:29:02;100169.28;;;22.48;41.60
44103;BME280;29769;42.178;24.742;2023-05-12T08:31:48;100169.56;;;23.20;40.60
44103;BME280;29769;42.178;24.742;2023-05-12T08:34:32;100169.13;;;23.42;39.95
44103;BME280;29769;42.178;24.742;2023-05-12T08:37:17;100174.19;;;22.24;40.15
44103;BME280;29769;42.178;24.742;2023-05-12T08:40:01;100178.31;;;21.98;41.10
44103;BME280;29769;42.178;24.742;2023-05-12T08:42:58;100174.28;;;22.07;40.83
44103;BME280;29769;42.178;24.742;2023-05-12T08:45:47;100168.25;;;22.66;39.74
44103;BME280;29769;42.178;24.742;2023-05-12T08:48:33;100143.81;;;22.08;40.42
44103;BME280;29769;42.178;24.742;2023-05-12T08:51:18;100170.28;;;20.95;41.81
44103;BME280;29769;42.178;24.742;2023-05-12T08:54:03;100172.28;;;20.56;43.21
44103;BME280;29769;42.178;24.742;2023-05-12T08:56:48;100182.47;;;19.90;44.86
44103;BME280;29769;42.178;24.742;2023-05-12T08:59:35;100173.41;;;20.69;45.10
44103;BME280;29769;42.178;24.742;2023-05-12T09:02:21;100171.91;;;20.80;45.60
44103;BME280;29769;42.178;24.742;2023-05-12T09:05:09;100172.16;;;21.12;44.68
44103;BME280;29769;42.178;24.742;2023-05-12T09:07:54;100163.56;;;21.90;42.12
44103;BME280;29769;42.178;24.742;2023-05-12T09:10:39;100167.75;;;21.95;37.62
44103;BME280;29769;42.178;24.742;2023-05-12T09:16:30;100165.94;;;20.39;42.39
44103;BME280;29769;42.178;24.742;2023-05-12T09:19:19;100166.69;;;20.96;42.79
44103;BME280;29769;42.178;24.742;2023-05-12T09:22:04;100144.38;;;22.61;39.76
44103;BME280;29769;42.178;24.742;2023-05-12T09:24:49;100152.13;;;23.27;35.90
44103;BME280;29769;42.178;24.742;2023-05-12T09:27:34;100137.53;;;24.04;34.47
44103;BME280;29769;42.178;24.742;2023-05-12T09:30:27;100147.03;;;24.64;32.58
44103;BME280;29769;42.178;24.742;2023-05-12T09:33:12;100147.97;;;23.22;34.75
44103;BME280;29769;42.178;24.742;2023-05-12T09:35:57;100142.34;;;23.40;34.34
44103;BME280;29769;42.178;24.742;2023-05-12T09:38:43;100142.72;;;23.78;33.71
44103;BME280;29769;42.178;24.742;2023-05-12T09:41:27;100136.56;;;23.48;33.49
44103;BME280;29769;42.178;24.742;2023-05-12T09:44:13;100142.19;;;22.68;35.04
44103;BME280;29769;42.178;24.742;2023-05-12T09:47:06;100138.00;;;23.54;34.10
44103;BME280;29769;42.178;24.742;2023-05-12T09:49:51;100134.09;;;24.84;34.43
44103;BME280;29769;42.178;24.742;2023-05-12T09:52:37;100125.41;;;26.57;30.62
44103;BME280;29769;42.178;24.742;2023-05-12T09:55:22;100119.88;;;26.59;29.85
44103;BME280;29769;42.178;24.742;2023-05-12T09:58:07;100124.50;;;27.74;28.98
44103;BME280;29769;42.178;24.742;2023-05-12T10:00:52;100123.50;;;28.42;28.35
44103;BME280;29769;42.178;24.742;2023-05-12T10:03:38;100117.97;;;27.99;26.45
44103;BME280;29769;42.178;24.742;2023-05-12T10:06:30;100134.19;;;25.61;28.18
44103;BME280;29769;42.178;24.742;2023-05-12T10:09:18;100137.00;;;26.94;27.53
44103;BME280;29769;42.178;24.742;2023-05-12T10:12:03;100132.63;;;28.29;26.27
44103;BME280;29769;42.178;24.742;2023-05-12T10:14:50;100127.06;;;28.31;26.27
44103;BME280;29769;42.178;24.742;2023-05-12T10:17:35;100126.47;;;27.83;26.93
44103;BME280;29769;42.178;24.742;2023-05-12T10:20:19;100124.47;;;27.63;27.36
44103;BME280;29769;42.178;24.742;2023-05-12T10:23:04;100117.84;;;26.86;28.71
44103;BME280;29769;42.178;24.742;2023-05-12T10:25:50;100118.91;;;26.60;28.52
44103;BME280;29769;42.178;24.742;2023-05-12T10:28:37;100121.22;;;27.47;27.54
44103;BME280;29769;42.178;24.742;2023-05-12T10:31:21;100114.00;;;28.90;26.58
44103;BME280;29769;42.178;24.742;2023-05-12T10:34:06;100117.59;;;26.65;28.03
44103;BME280;29769;42.178;24.742;2023-05-12T10:36:51;100124.75;;;25.29;29.18
44103;BME280;29769;42.178;24.742;2023-05-12T10:39:50;100122.56;;;25.08;29.86
44103;BME280;29769;42.178;24.742;2023-05-12T10:42:41;100105.47;;;26.47;28.40
44103;BME280;29769;42.178;24.742;2023-05-12T10:45:26;100115.53;;;24.66;30.38
44103;BME280;29769;42.178;24.742;2023-05-12T10:48:14;100106.81;;;24.08;31.59
44103;BME280;29769;42.178;24.742;2023-05-12T10:51:08;100102.19;;;24.10;32.22
44103;BME280;29769;42.178;24.742;2023-05-12T10:56:41;100090.03;;;26.25;29.60
44103;BME280;29769;42.178;24.742;2023-05-12T10:59:27;100089.78;;;27.46;27.88
44103;BME280;29769;42.178;24.742;2023-05-12T11:02:15;100083.53;;;26.28;28.47
44103;BME280;29769;42.178;24.742;2023-05-12T11:05:02;100096.81;;;24.10;31.72
44103;BME280;29769;42.178;24.742;2023-05-12T11:07:49;100093.31;;;25.92;29.12
44103;BME280;29769;42.178;24.742;2023-05-12T11:10:33;100093.25;;;25.56;28.89
44103;BME280;29769;42.178;24.742;2023-05-12T11:13:19;100082.91;;;26.24;28.55
44103;BME280;29769;42.178;24.742;2023-05-12T11:16:04;100093.56;;;25.64;29.62
44103;BME280;29769;42.178;24.742;2023-05-12T11:18:59;100089.50;;;25.95;29.07
44103;BME280;29769;42.178;24.742;2023-05-12T11:21:43;100094.94;;;25.70;29.65
44103;BME280;29769;42.178;24.742;2023-05-12T11:24:28;100103.72;;;24.81;30.98
44103;BME280;29769;42.178;24.742;2023-05-12T11:27:13;100089.13;;;25.76;29.19
44103;BME280;29769;42.178;24.742;2023-05-12T11:29:59;100088.59;;;26.80;27.31
44103;BME280;29769;42.178;24.742;2023-05-12T11:32:44;100090.75;;;25.65;29.11
44103;BME280;29769;42.178;24.742;2023-05-12T11:35:29;100093.00;;;25.72;29.90
44103;BME280;29769;42.178;24.742;2023-05-12T11:38:15;100094.41;;;26.39;28.65
44103;BME280;29769;42.178;24.742;2023-05-12T11:41:00;100075.66;;;26.96;27.63
44103;BME280;29769;42.178;24.742;2023-05-12T11:43:45;100078.88;;;26.17;27.68
44103;BME280;29769;42.178;24.742;2023-05-12T11:46:30;100073.28;;;26.33;28.49
44103;BME280;29769;42.178;24.742;2023-05-12T11:49:14;100073.47;;;27.58;27.10
44103;BME280;29769;42.178;24.742;2023-05-12T11:51:59;100073.66;;;28.87;26.06
44103;BME280;29769;42.178;24.742;2023-05-12T11:57:33;100088.78;;;25.42;29.29
44103;BME280;29769;42.178;24.742;2023-05-12T12:00:25;100068.41;;;26.62;28.60
44103;BME280;29769;42.178;24.742;2023-05-12T12:03:11;100067.19;;;27.47;27.91
44103;BME280;29769;42.178;24.742;2023-05-12T12:05:59;100068.53;;;25.37;28.45
44103;BME280;29769;42.178;24.742;2023-05-12T12:09:03;100070.53;;;24.95;29.61
44103;BME280;29769;42.178;24.742;2023-05-12T12:11:47;100064.00;;;25.88;29.16
44103;BME280;29769;42.178;24.742;2023-05-12T12:14:32;100072.72;;;24.76;30.58
44103;BME280;29769;42.178;24.742;2023-05-12T12:17:18;100073.94;;;24.58;31.30
44103;BME280;29769;42.178;24.742;2023-05-12T12:20:02;100066.59;;;25.89;30.04
44103;BME280;29769;42.178;24.742;2023-05-12T12:22:49;100064.47;;;25.56;30.01
44103;BME280;29769;42.178;24.742;2023-05-12T12:25:33;100072.59;;;24.65;29.38
44103;BME280;29769;42.178;24.742;2023-05-12T12:28:18;100063.44;;;24.67;30.57
44103;BME280;29769;42.178;24.742;2023-05-12T12:31:03;100058.25;;;24.25;30.28
44103;BME280;29769;42.178;24.742;2023-05-12T12:33:49;100053.13;;;23.65;31.71
44103;BME280;29769;42.178;24.742;2023-05-12T12:36:33;100047.81;;;24.87;31.18
44103;BME280;29769;42.178;24.742;2023-05-12T12:39:18;100046.78;;;24.75;31.30
44103;BME280;29769;42.178;24.742;2023-05-12T12:42:02;100044.75;;;24.39;32.24
44103;BME280;29769;42.178;24.742;2023-05-12T12:44:47;100042.56;;;23.76;31.96
44103;BME280;29769;42.178;24.742;2023-05-12T12:47:33;100039.34;;;23.57;33.08
44103;BME280;29769;42.178;24.742;2023-05-12T12:50:17;100041.59;;;23.91;33.43
44103;BME280;29769;42.178;24.742;2023-05-12T12:53:02;100038.91;;;25.37;32.46
44103;BME280;29769;42.178;24.742;2023-05-12T12:55:47;100033.44;;;26.00;30.71
44103;BME280;29769;42.178;24.742;2023-05-12T12:58:32;100026.19;;;25.64;30.95
44103;BME280;29769;42.178;24.742;2023-05-12T13:01:16;100031.25;;;24.93;30.90
44103;BME280;29769;42.178;24.742;2023-05-12T13:04:02;100034.94;;;24.77;31.65
44103;BME280;29769;42.178;24.742;2023-05-12T13:06:48;100029.31;;;22.73;34.53
44103;BME280;29769;42.178;24.742;2023-05-12T13:09:32;100037.19;;;22.76;36.00
44103;BME280;29769;42.178;24.742;2023-05-12T13:12:17;100036.91;;;23.24;33.34
44103;BME280;29769;42.178;24.742;2023-05-12T13:15:02;100030.19;;;23.74;33.04
44103;BME280;29769;42.178;24.742;2023-05-12T13:17:50;100031.00;;;23.47;33.29
44103;BME280;29769;42.178;24.742;2023-05-12T13:20:35;100036.84;;;22.96;35.78
44103;BME280;29769;42.178;24.742;2023-05-12T13:23:20;100039.09;;;22.12;36.49
44103;BME280;29769;42.178;24.742;2023-05-12T13:26:04;100035.31;;;22.16;36.36
44103;BME280;29769;42.178;24.742;2023-05-12T13:28:49;100033.28;;;22.36;36.04
44103;BME280;29769;42.178;24.742;2023-05-12T13:31:33;100031.75;;;22.00;36.87
44103;BME280;29769;42.178;24.742;2023-05-12T13:34:18;100027.19;;;22.02;36.39
44103;BME280;29769;42.178;24.742;2023-05-12T13:37:03;100022.75;;;21.70;38.78
44103;BME280;29769;42.178;24.742;2023-05-12T13:39:47;100023.81;;;21.50;38.80
44103;BME280;29769;42.178;24.742;2023-05-12T13:42:32;100026.19;;;21.56;38.65
44103;BME280;29769;42.178;24.742;2023-05-12T13:45:16;100026.69;;;21.14;39.12
44103;BME280;29769;42.178;24.742;2023-05-12T13:48:01;100030.59;;;21.24;40.15
44103;BME280;29769;42.178;24.742;2023-05-12T13:50:45;100026.88;;;21.27;41.80
44103;BME280;29769;42.178;24.742;2023-05-12T13:53:30;100031.47;;;20.39;42.30
44103;BME280;29769;42.178;24.742;2023-05-12T13:56:15;100037.44;;;20.96;42.46
44103;BME280;29769;42.178;24.742;2023-05-12T13:59:00;100040.69;;;20.68;41.82
44103;BME280;29769;42.178;24.742;2023-05-12T14:01:44;100038.34;;;20.26;43.41
44103;BME280;29769;42.178;24.742;2023-05-12T14:04:28;100034.38;;;20.16;43.90
44103;BME280;29769;42.178;24.742;2023-05-12T14:07:13;100034.50;;;20.31;41.96
44103;BME280;29769;42.178;24.742;2023-05-12T14:09:58;100035.56;;;20.27;42.58
44103;BME280;29769;42.178;24.742;2023-05-12T14:12:44;100033.41;;;20.35;42.49
44103;BME280;29769;42.178;24.742;2023-05-12T14:15:29;100039.97;;;20.64;40.64
44103;BME280;29769;42.178;24.742;2023-05-12T14:18:13;100041.25;;;20.57;41.52